logo
Search for airport 
image banner adimage banner adimage banner ad
image banner ad

YMHX - Mount Mccutcheon

Located in Southwest, Australia

ICAO - , IATA -

Data provided by Airmate  

General information

Coordinates: S42°22'4" E145°39'24"
Elevation is 921 feet MSL.
Magnetic variation is 14° East
View others Airports in Tasmania

Operational data

Special qualification required
Current time UTC:
Current local time:
Weather at : - ( 0 km )
METAR: PAWS 131448Z AUTO 00000KT 3SM -SN BR FEW008 OVC019 M02/M04 A2970 RMK AO2 P0000 FZRANO
View NOTAMs / SUP AIP / TFR affecting this airport [VIEW]
Communications frequencies: [VIEW]

Runways:

Airport contact information

Address: Southwest Australia

Satellite view of YMHX